createdAt,value
2022-08-30T00:02:20.877Z,75.74
2022-08-30T00:04:48.476Z,74.52
2022-08-30T00:07:15.784Z,74.02
2022-08-30T00:09:43.156Z,75.67
2022-08-30T00:12:13.207Z,75.57
2022-08-30T00:14:40.538Z,74.99
2022-08-30T00:17:07.885Z,74.45
2022-08-30T00:19:35.249Z,74.62
2022-08-30T00:22:02.698Z,74.78
2022-08-30T00:24:30.797Z,74.61
2022-08-30T00:26:58.422Z,76.37
2022-08-30T00:29:25.782Z,77.64
2022-08-30T00:31:55.691Z,77.39
2022-08-30T00:34:23.054Z,77.49
2022-08-30T00:36:50.428Z,78.45
2022-08-30T00:39:17.770Z,77.01
2022-08-30T00:41:45.132Z,76.99
2022-08-30T00:44:12.617Z,77.23
2022-08-30T00:46:40.028Z,76.98
2022-08-30T00:49:10.792Z,77.59
2022-08-30T00:51:39.569Z,77.92
2022-08-30T00:54:08.059Z,77.37
2022-08-30T00:56:35.945Z,77.50
2022-08-30T00:59:05.422Z,77.27
2022-08-30T01:01:34.095Z,76.80
2022-08-30T01:04:02.757Z,76.40
2022-08-30T01:06:32.587Z,77.25
2022-08-30T01:09:02.004Z,77.35
2022-08-30T01:11:33.615Z,77.79
2022-08-30T01:14:03.049Z,78.36
2022-08-30T01:16:32.533Z,78.28
2022-08-30T01:19:00.709Z,78.16
2022-08-30T01:21:36.889Z,77.76
2022-08-30T01:24:06.134Z,78.55
2022-08-30T01:26:35.975Z,79.52
2022-08-30T01:29:13.453Z,80.20
2022-08-30T01:31:40.913Z,80.82
2022-08-30T01:34:08.969Z,80.62
2022-08-30T01:36:44.549Z,80.11
2022-08-30T01:39:17.939Z,79.95
2022-08-30T01:41:46.109Z,81.57
2022-08-30T01:44:14.330Z,82.58
2022-08-30T01:46:46.191Z,81.58
2022-08-30T01:49:17.570Z,80.64
2022-08-30T01:51:50.710Z,81.98
2022-08-30T01:54:27.906Z,81.87
2022-08-30T01:57:04.935Z,81.87
2022-08-30T01:59:35.030Z,80.75
2022-08-30T02:02:02.899Z,81.93
2022-08-30T02:04:30.888Z,81.71
2022-08-30T02:06:58.495Z,81.71
2022-08-30T02:09:25.938Z,82.53
2022-08-30T02:11:53.349Z,82.81
2022-08-30T02:14:21.076Z,83.89
2022-08-30T02:16:48.797Z,84.88
2022-08-30T02:19:18.016Z,85.75
2022-08-30T02:21:45.344Z,85.92
2022-08-30T02:24:12.681Z,84.79
2022-08-30T02:26:40.065Z,83.70
2022-08-30T02:29:07.433Z,84.52
2022-08-30T02:31:35.339Z,83.02
2022-08-30T02:34:02.692Z,82.76
2022-08-30T02:36:30.378Z,83.76
2022-08-30T02:39:00.275Z,83.17
2022-08-30T02:41:27.570Z,84.13
2022-08-30T02:43:58.460Z,83.94
2022-08-30T02:46:27.273Z,83.04
2022-08-30T02:49:13.129Z,81.02
2022-08-30T02:51:48.044Z,80.11
2022-08-30T02:54:19.853Z,82.65
2022-08-30T02:56:48.644Z,82.70
2022-08-30T02:59:17.585Z,83.23
2022-08-30T03:01:45.088Z,81.65
2022-08-30T03:04:12.444Z,80.65
2022-08-30T03:06:39.831Z,76.24
2022-08-30T03:09:07.585Z,75.99
2022-08-30T03:11:35.206Z,74.17
2022-08-30T03:14:02.522Z,74.37
2022-08-30T03:16:29.842Z,74.97
2022-08-30T03:18:57.257Z,74.73
2022-08-30T03:21:24.774Z,74.78
2022-08-30T03:23:52.047Z,74.77
2022-08-30T03:26:19.388Z,75.25
2022-08-30T03:28:46.894Z,76.05
2022-08-30T03:31:14.339Z,75.88
2022-08-30T03:33:41.999Z,76.29
2022-08-30T03:36:09.616Z,77.08
2022-08-30T03:38:37.114Z,77.24
2022-08-30T03:41:05.900Z,77.26
2022-08-30T03:43:35.179Z,77.51
2022-08-30T03:46:03.474Z,76.58
2022-08-30T03:48:31.391Z,77.79
2022-08-30T03:50:58.746Z,79.06
2022-08-30T03:53:26.947Z,79.59
2022-08-30T03:55:54.947Z,80.97
2022-08-30T03:58:22.847Z,82.62
2022-08-30T04:00:50.285Z,83.07
2022-08-30T04:03:18.771Z,83.09
2022-08-30T04:05:46.396Z,82.65
2022-08-30T04:08:13.665Z,80.47
2022-08-30T04:10:41.573Z,78.91
2022-08-30T04:13:09.094Z,78.38
2022-08-30T04:15:36.427Z,75.28
2022-08-30T04:18:03.835Z,75.21
2022-08-30T04:20:31.194Z,72.86
2022-08-30T04:22:58.832Z,72.13
2022-08-30T04:25:26.294Z,71.64
2022-08-30T04:27:54.082Z,70.47
2022-08-30T04:30:21.446Z,70.14
2022-08-30T04:32:48.929Z,71.17
2022-08-30T04:35:16.332Z,72.11
2022-08-30T04:37:43.707Z,71.17
2022-08-30T04:40:11.804Z,71.54
2022-08-30T04:42:39.151Z,74.08
2022-08-30T04:45:09.890Z,74.63
2022-08-30T04:47:39.857Z,74.05
2022-08-30T04:50:08.596Z,73.91
2022-08-30T04:52:36.703Z,75.21
2022-08-30T04:55:04.659Z,75.48
2022-08-30T04:57:32.107Z,75.71
2022-08-30T04:59:59.471Z,75.19
2022-08-30T05:02:27.053Z,75.25
2022-08-30T05:05:14.193Z,76.36
2022-08-30T05:07:41.835Z,78.21
2022-08-30T05:10:11.597Z,79.44
2022-08-30T05:12:40.177Z,79.81
2022-08-30T05:15:08.448Z,79.69
2022-08-30T05:17:38.529Z,78.38
2022-08-30T05:20:10.758Z,78.26
2022-08-30T05:22:40.111Z,80.29
2022-08-30T05:25:08.207Z,81.20
2022-08-30T05:27:37.204Z,80.83
2022-08-30T05:30:06.275Z,81.33
2022-08-30T05:32:33.763Z,82.75
2022-08-30T05:35:01.139Z,84.22
2022-08-30T05:37:28.519Z,82.62
2022-08-30T05:39:56.683Z,80.87
2022-08-30T05:42:24.077Z,81.57
2022-08-30T05:44:52.823Z,79.74
2022-08-30T05:47:21.355Z,81.46
2022-08-30T05:49:48.734Z,82.36
2022-08-30T05:52:18.159Z,82.50
2022-08-30T05:54:46.494Z,83.95
2022-08-30T05:57:13.860Z,82.47
2022-08-30T05:59:41.311Z,81.09
2022-08-30T06:02:08.857Z,81.53
2022-08-30T06:04:39.274Z,79.45
2022-08-30T06:07:07.313Z,79.60
2022-08-30T06:09:35.275Z,79.59
2022-08-30T06:12:02.822Z,78.23
2022-08-30T06:14:30.219Z,77.43
2022-08-30T06:16:58.526Z,76.53
2022-08-30T06:19:25.964Z,76.61
2022-08-30T06:21:53.325Z,75.97
2022-08-30T06:24:27.813Z,75.01
2022-08-30T06:27:06.327Z,74.67
2022-08-30T06:29:33.740Z,75.99
2022-08-30T06:32:01.068Z,76.54
2022-08-30T06:34:28.497Z,74.75
2022-08-30T06:36:55.832Z,73.57
2022-08-30T06:39:26.158Z,71.43
2022-08-30T06:41:53.722Z,69.30
2022-08-30T06:44:33.545Z,64.91
2022-08-30T06:47:01.074Z,60.42
2022-08-30T06:49:28.430Z,58.97
2022-08-30T06:51:55.826Z,58.22
2022-08-30T06:54:23.221Z,57.53
2022-08-30T06:56:58.872Z,54.77
2022-08-30T06:59:27.175Z,53.72
2022-08-30T07:01:55.628Z,51.61
2022-08-30T07:04:23.303Z,51.05
2022-08-30T07:06:53.332Z,51.97
2022-08-30T07:09:23.030Z,53.44
2022-08-30T07:11:51.896Z,54.93
2022-08-30T07:14:20.049Z,55.69
2022-08-30T07:16:51.340Z,55.89
2022-08-30T07:19:21.023Z,58.73
2022-08-30T07:21:50.486Z,57.86
2022-08-30T07:24:18.793Z,58.20
2022-08-30T07:26:49.908Z,57.31
2022-08-30T07:29:17.796Z,56.89
2022-08-30T07:31:45.570Z,56.77
2022-08-30T07:34:13.135Z,55.95
2022-08-30T07:36:40.475Z,55.56
2022-08-30T07:39:08.167Z,54.61
2022-08-30T07:41:38.860Z,53.32
2022-08-30T07:44:10.777Z,51.29
2022-08-30T07:46:39.436Z,50.21
2022-08-30T07:49:10.825Z,49.44
2022-08-30T07:51:39.547Z,47.30
2022-08-30T07:54:07.110Z,47.78
2022-08-30T07:56:35.309Z,48.55
2022-08-30T07:59:02.860Z,44.75
2022-08-30T08:01:30.433Z,46.64
2022-08-30T08:03:57.855Z,48.32
2022-08-30T08:06:25.437Z,49.26
2022-08-30T08:08:53.772Z,47.12
2022-08-30T08:11:26.744Z,47.20
2022-08-30T08:13:55.959Z,42.32
2022-08-30T08:16:25.733Z,43.45
2022-08-30T08:18:53.920Z,44.86
2022-08-30T08:21:23.407Z,43.71
2022-08-30T08:23:51.414Z,45.07
2022-08-30T08:26:20.046Z,45.80
2022-08-30T08:28:47.665Z,45.97
2022-08-30T08:31:24.035Z,44.37
2022-08-30T08:33:56.247Z,46.73
2022-08-30T08:36:23.717Z,45.63
2022-08-30T08:38:50.992Z,46.29
2022-08-30T08:41:48.569Z,45.44
2022-08-30T08:44:43.092Z,42.12
2022-08-30T08:47:55.530Z,40.03
2022-08-30T08:50:23.956Z,40.38
2022-08-30T08:53:46.310Z,41.31
2022-08-30T08:56:17.535Z,40.97
2022-08-30T08:58:54.574Z,42.83
2022-08-30T09:01:28.466Z,44.27
2022-08-30T09:03:57.683Z,44.12
2022-08-30T09:06:45.734Z,43.07
2022-08-30T09:09:16.406Z,42.52
2022-08-30T09:11:59.129Z,41.89
2022-08-30T09:14:32.222Z,41.63
2022-08-30T09:17:05.028Z,41.50
2022-08-30T09:19:39.794Z,43.29
2022-08-30T09:22:22.680Z,44.02
2022-08-30T09:24:54.233Z,42.95
2022-08-30T09:27:40.024Z,44.87
2022-08-30T09:30:14.922Z,46.83
2022-08-30T09:32:54.274Z,47.58
2022-08-30T09:35:25.886Z,46.75
2022-08-30T09:37:57.224Z,46.26
2022-08-30T09:40:34.179Z,45.24
2022-08-30T09:43:12.677Z,42.82
2022-08-30T09:45:44.921Z,44.78
2022-08-30T09:48:27.287Z,44.71
2022-08-30T09:51:18.818Z,44.36
2022-08-30T09:57:13.186Z,45.64
2022-08-30T10:00:11.777Z,46.65
2022-08-30T10:02:47.748Z,43.93
2022-08-30T10:05:17.787Z,43.50
2022-08-30T10:08:17.028Z,45.29
2022-08-30T10:11:10.813Z,45.34
2022-08-30T10:13:50.293Z,45.72
2022-08-30T10:16:40.212Z,46.01
2022-08-30T10:19:35.266Z,47.97
2022-08-30T10:22:23.887Z,48.23
2022-08-30T10:25:05.483Z,48.19
2022-08-30T10:27:43.713Z,46.68
2022-08-30T10:30:14.238Z,44.02
2022-08-30T10:32:58.588Z,41.88
2022-08-30T10:35:38.583Z,41.77
2022-08-30T10:38:22.260Z,43.33
2022-08-30T10:41:13.557Z,43.21
2022-08-30T10:43:51.079Z,43.96
2022-08-30T10:46:52.331Z,43.49
2022-08-30T10:49:26.493Z,42.79
2022-08-30T10:52:12.127Z,45.33
2022-08-30T10:54:50.465Z,44.32
2022-08-30T10:57:20.171Z,46.16
2022-08-30T10:59:54.980Z,45.71
2022-08-30T11:02:50.899Z,45.60
2022-08-30T11:05:48.762Z,43.90
2022-08-30T11:08:37.338Z,42.17
2022-08-30T11:11:33.242Z,40.46
2022-08-30T11:14:06.518Z,40.03
2022-08-30T11:16:43.612Z,41.02
2022-08-30T11:19:22.607Z,41.61
2022-08-30T11:21:51.538Z,40.92
2022-08-30T11:24:25.485Z,43.21
2022-08-30T11:27:00.987Z,45.53
2022-08-30T11:29:44.214Z,43.73
2022-08-30T11:32:17.127Z,44.86
2022-08-30T11:34:44.748Z,44.32
2022-08-30T11:37:39.586Z,45.79
2022-08-30T11:40:24.730Z,44.81
2022-08-30T11:42:55.850Z,46.72
2022-08-30T11:45:24.714Z,45.09
2022-08-30T11:47:59.635Z,46.37
2022-08-30T11:50:48.476Z,45.12
2022-08-30T11:53:28.535Z,42.94
2022-08-30T11:56:28.607Z,44.67
2022-08-30T11:59:02.310Z,44.94
2022-08-30T12:01:50.086Z,44.66
2022-08-30T12:04:22.217Z,45.19
2022-08-30T12:06:52.286Z,47.62
2022-08-30T12:09:25.540Z,44.29
2022-08-30T12:12:00.392Z,45.67
2022-08-30T12:14:36.626Z,42.32
2022-08-30T12:17:37.079Z,42.60
2022-08-30T12:20:13.907Z,41.62
2022-08-30T12:22:42.307Z,41.26
2022-08-30T12:25:28.912Z,43.07
2022-08-30T12:28:30.402Z,41.14
2022-08-30T12:31:07.537Z,41.79
2022-08-30T12:33:41.917Z,41.83
2022-08-30T12:36:15.325Z,42.26
2022-08-30T12:38:42.996Z,41.54
2022-08-30T12:41:21.803Z,41.62
2022-08-30T12:43:52.086Z,42.40
2022-08-30T12:46:21.518Z,42.14
2022-08-30T12:48:49.767Z,42.30
2022-08-30T12:51:39.509Z,42.81
2022-08-30T12:54:26.328Z,43.85
2022-08-30T12:57:13.949Z,42.57
2022-08-30T12:59:59.572Z,42.59
2022-08-30T13:02:41.863Z,43.32
2022-08-30T13:05:45.044Z,43.44
2022-08-30T13:08:26.249Z,43.02
2022-08-30T13:11:05.858Z,45.42
2022-08-30T13:13:52.375Z,42.48
2022-08-30T13:16:20.645Z,43.03
2022-08-30T13:19:32.503Z,43.16
2022-08-30T13:22:01.226Z,44.39
2022-08-30T13:24:29.283Z,43.39
2022-08-30T13:27:02.115Z,43.69
2022-08-30T13:29:29.943Z,43.03
2022-08-30T13:31:58.001Z,43.66
2022-08-30T13:34:25.499Z,43.51
2022-08-30T13:36:56.259Z,43.06
2022-08-30T13:39:23.880Z,43.95
2022-08-30T13:41:51.787Z,44.50
2022-08-30T13:44:19.605Z,44.80
2022-08-30T13:46:55.397Z,43.96
2022-08-30T13:49:43.815Z,44.00
2022-08-30T13:52:21.975Z,43.70
2022-08-30T13:54:55.156Z,43.95
2022-08-30T14:00:17.766Z,44.16
2022-08-30T14:02:54.132Z,44.18
2022-08-30T14:05:48.400Z,45.04
2022-08-30T14:08:48.992Z,44.40
2022-08-30T14:11:19.678Z,45.88
2022-08-30T14:16:41.379Z,45.20
2022-08-30T14:19:10.027Z,44.20
2022-08-30T14:21:37.554Z,44.40
2022-08-30T14:24:06.605Z,45.78
2022-08-30T14:26:39.450Z,45.78
2022-08-30T14:29:10.114Z,44.82
2022-08-30T14:31:39.976Z,45.10
2022-08-30T14:34:12.348Z,45.93
2022-08-30T14:36:42.123Z,45.67
2022-08-30T14:39:15.099Z,45.78
2022-08-30T14:41:55.232Z,47.14
2022-08-30T14:44:23.783Z,47.88
2022-08-30T14:46:52.106Z,47.79
2022-08-30T14:49:21.255Z,48.93
2022-08-30T14:51:51.983Z,49.15
2022-08-30T14:54:21.561Z,49.53
2022-08-30T14:56:48.958Z,49.95
2022-08-30T14:59:16.346Z,48.43
2022-08-30T15:01:45.307Z,48.00
2022-08-30T15:04:14.119Z,47.99
2022-08-30T15:06:44.617Z,48.19
2022-08-30T15:09:15.006Z,48.35
2022-08-30T15:11:46.921Z,48.41
2022-08-30T15:14:16.288Z,48.65
2022-08-30T15:16:44.235Z,48.68
2022-08-30T15:19:11.919Z,47.87
2022-08-30T15:21:44.891Z,48.61
2022-08-30T15:24:17.496Z,48.38
2022-08-30T15:26:44.924Z,48.51
2022-08-30T15:29:15.336Z,48.97
2022-08-30T15:31:49.682Z,49.58
2022-08-30T15:34:20.474Z,50.21
2022-08-30T15:36:48.902Z,50.31
2022-08-30T15:39:18.587Z,50.18
2022-08-30T15:41:46.732Z,50.17
2022-08-30T15:44:23.222Z,49.33
2022-08-30T15:46:50.645Z,48.26
2022-08-30T15:49:21.399Z,49.69
2022-08-30T15:51:53.971Z,50.43
2022-08-30T15:54:23.753Z,52.03
2022-08-30T15:56:58.973Z,52.43
2022-08-30T15:59:30.900Z,52.82
2022-08-30T16:01:58.419Z,52.95
2022-08-30T16:04:27.065Z,53.13
2022-08-30T16:06:54.670Z,53.80
2022-08-30T16:09:22.214Z,53.27
2022-08-30T16:11:51.141Z,53.45
2022-08-30T16:14:19.659Z,53.39
2022-08-30T16:16:47.006Z,53.97
2022-08-30T16:19:14.424Z,54.06
2022-08-30T16:21:43.303Z,54.61
2022-08-30T16:24:13.851Z,55.78
2022-08-30T16:26:43.065Z,55.53
2022-08-30T16:29:12.359Z,56.01
2022-08-30T16:31:42.241Z,55.99
2022-08-30T16:34:11.653Z,57.12
2022-08-30T16:36:39.671Z,57.05
2022-08-30T16:39:09.053Z,57.53
2022-08-30T16:41:41.393Z,57.81
2022-08-30T16:44:09.231Z,57.55
2022-08-30T16:46:40.314Z,57.41
2022-08-30T16:49:10.480Z,57.97
2022-08-30T16:51:38.573Z,57.93
2022-08-30T16:54:07.833Z,58.63
2022-08-30T16:56:37.568Z,58.59
2022-08-30T16:59:10.904Z,59.16
2022-08-30T17:01:42.079Z,59.32
2022-08-30T17:04:11.314Z,59.54
2022-08-30T17:06:41.896Z,59.66
2022-08-30T17:09:10.492Z,59.24
2022-08-30T17:11:40.201Z,60.15
2022-08-30T17:14:08.332Z,59.58
2022-08-30T17:16:38.755Z,60.10
2022-08-30T17:19:08.974Z,59.48
2022-08-30T17:21:36.867Z,61.20
2022-08-30T17:24:09.185Z,62.46
2022-08-30T17:26:37.823Z,65.29
2022-08-30T17:29:07.785Z,65.80
2022-08-30T17:31:37.453Z,68.08
2022-08-30T17:34:05.893Z,69.71
2022-08-30T17:36:36.546Z,70.19
2022-08-30T17:39:11.099Z,71.09
2022-08-30T17:41:51.523Z,73.27
2022-08-30T17:44:25.903Z,73.49
2022-08-30T17:46:53.619Z,73.10
2022-08-30T17:49:25.029Z,73.86
2022-08-30T17:51:56.667Z,72.92
2022-08-30T17:54:26.851Z,73.84
2022-08-30T17:56:55.875Z,73.96
2022-08-30T17:59:25.616Z,73.14
2022-08-30T18:01:56.671Z,72.55
2022-08-30T18:04:25.174Z,73.07
2022-08-30T18:06:53.718Z,72.98
2022-08-30T18:09:24.354Z,72.15
2022-08-30T18:11:52.176Z,71.45
2022-08-30T18:14:23.902Z,73.24
2022-08-30T18:16:54.231Z,74.09
2022-08-30T18:19:27.124Z,73.66
2022-08-30T18:21:55.258Z,73.75
2022-08-30T18:24:23.491Z,73.35
2022-08-30T18:26:51.093Z,73.98
2022-08-30T18:29:26.160Z,74.43
2022-08-30T18:32:00.839Z,74.61
2022-08-30T18:34:28.801Z,74.55
2022-08-30T18:36:56.753Z,74.41
2022-08-30T18:39:25.131Z,74.16
2022-08-30T18:41:54.533Z,74.75
2022-08-30T18:44:28.196Z,75.18
2022-08-30T18:46:57.793Z,75.75
2022-08-30T18:49:26.551Z,75.09
2022-08-30T18:51:54.719Z,75.11
2022-08-30T18:54:22.119Z,75.24
2022-08-30T18:56:50.375Z,75.18
2022-08-30T18:59:21.079Z,74.82
2022-08-30T19:01:49.186Z,74.92
2022-08-30T19:04:22.393Z,75.19
2022-08-30T19:06:57.636Z,74.89
2022-08-30T19:09:26.635Z,75.19
2022-08-30T19:11:54.633Z,75.26
2022-08-30T19:14:21.992Z,75.91
2022-08-30T19:16:49.300Z,76.91
2022-08-30T19:19:17.017Z,76.93
2022-08-30T19:21:44.437Z,77.10
2022-08-30T19:24:12.360Z,76.92
2022-08-30T19:26:46.682Z,76.34
2022-08-30T19:29:14.878Z,76.05
2022-08-30T19:31:43.689Z,75.82
2022-08-30T19:34:11.830Z,75.53
2022-08-30T19:36:39.839Z,75.50
2022-08-30T19:39:07.511Z,74.96
2022-08-30T19:41:35.257Z,74.81
2022-08-30T19:44:04.695Z,75.80
2022-08-30T19:46:32.469Z,74.87
2022-08-30T19:49:03.891Z,75.16
2022-08-30T19:51:31.505Z,74.82
2022-08-30T19:54:01.122Z,74.71
2022-08-30T19:56:28.899Z,75.28
2022-08-30T19:58:57.559Z,74.82
2022-08-30T20:01:32.184Z,75.07
2022-08-30T20:04:02.177Z,75.02
2022-08-30T20:06:30.646Z,74.31
2022-08-30T20:09:00.538Z,74.32
2022-08-30T20:11:31.760Z,74.59
2022-08-30T20:13:59.440Z,75.43
2022-08-30T20:16:35.530Z,75.12
2022-08-30T20:19:07.794Z,75.13
2022-08-30T20:21:36.451Z,75.20
2022-08-30T20:24:05.222Z,74.35
2022-08-30T20:26:39.301Z,74.17
2022-08-30T20:29:07.874Z,74.06
2022-08-30T20:31:36.106Z,74.55
2022-08-30T20:34:04.065Z,74.85
2022-08-30T20:36:32.463Z,72.21
2022-08-30T20:39:01.371Z,71.52
2022-08-30T20:41:30.737Z,71.79
2022-08-30T20:43:58.324Z,71.16
2022-08-30T20:46:27.025Z,70.63
2022-08-30T20:48:57.005Z,69.63
2022-08-30T20:51:24.321Z,68.69
2022-08-30T20:53:55.607Z,68.48
2022-08-30T20:56:23.009Z,69.77
2022-08-30T20:58:50.715Z,69.67
2022-08-30T21:01:18.648Z,70.69
2022-08-30T21:03:47.625Z,70.47
2022-08-30T21:06:16.747Z,70.41
2022-08-30T21:08:44.112Z,69.84
2022-08-30T21:11:12.281Z,69.76
2022-08-30T21:13:39.563Z,69.64
2022-08-30T21:16:07.225Z,69.93
2022-08-30T21:18:36.177Z,69.48
2022-08-30T21:21:15.665Z,69.27
2022-08-30T21:23:43.081Z,69.12
2022-08-30T21:26:10.722Z,69.68
2022-08-30T21:28:38.874Z,70.39
2022-08-30T21:31:12.845Z,70.70
2022-08-30T21:33:40.919Z,70.91
2022-08-30T21:36:28.323Z,71.53
2022-08-30T21:39:00.697Z,71.64
2022-08-30T21:41:30.112Z,72.99
2022-08-30T21:43:59.521Z,73.03
2022-08-30T21:46:28.477Z,73.65
2022-08-30T21:48:59.192Z,73.58
2022-08-30T21:51:26.768Z,74.28
2022-08-30T21:53:54.420Z,74.52
2022-08-30T21:56:22.461Z,75.71
2022-08-30T21:58:50.427Z,77.11
2022-08-30T22:01:23.653Z,78.07
2022-08-30T22:03:54.603Z,78.01
2022-08-30T22:06:25.135Z,78.97
2022-08-30T22:08:59.382Z,79.59
2022-08-30T22:11:28.437Z,79.92
2022-08-30T22:13:56.122Z,80.45
2022-08-30T22:16:24.825Z,80.86
2022-08-30T22:18:55.560Z,80.63
2022-08-30T22:21:25.934Z,81.33
2022-08-30T22:23:53.436Z,82.91
2022-08-30T22:26:21.424Z,82.31
2022-08-30T22:28:48.936Z,81.45
2022-08-30T22:31:18.170Z,81.80
2022-08-30T22:33:46.990Z,82.36
2022-08-30T22:36:21.814Z,83.31
2022-08-30T22:38:53.133Z,81.87
2022-08-30T22:41:31.313Z,82.61
2022-08-30T22:43:58.963Z,82.07
2022-08-30T22:46:33.875Z,82.53
2022-08-30T22:49:04.269Z,83.41
2022-08-30T22:51:32.182Z,83.46
2022-08-30T22:54:01.316Z,83.04
2022-08-30T22:56:29.513Z,83.62
2022-08-30T22:58:57.041Z,83.62
2022-08-30T23:01:30.581Z,83.44
2022-08-30T23:03:58.929Z,83.75
2022-08-30T23:06:26.410Z,83.77
2022-08-30T23:08:54.062Z,84.18
2022-08-30T23:11:21.978Z,83.89
2022-08-30T23:13:49.389Z,83.80
2022-08-30T23:16:17.563Z,83.91
2022-08-30T23:18:46.657Z,84.45
2022-08-30T23:21:17.329Z,83.92
2022-08-30T23:24:03.413Z,84.80
2022-08-30T23:26:49.534Z,84.01
2022-08-30T23:29:38.559Z,83.88
2022-08-30T23:32:24.591Z,83.80
2022-08-30T23:35:10.470Z,83.62
2022-08-30T23:37:56.702Z,84.58
2022-08-30T23:40:42.656Z,85.51
2022-08-30T23:43:28.521Z,85.39
2022-08-30T23:46:18.883Z,87.09
2022-08-30T23:49:06.778Z,87.70
2022-08-30T23:51:53.555Z,88.28
2022-08-30T23:54:39.769Z,87.82
2022-08-30T23:57:29.343Z,89.10
